sensor_id;sensor_type;location;lat;lon;timestamp;P1;durP1;ratioP1;P2;durP2;ratioP2
791;SDS011;379;49.022;12.148;2022-07-29T00:01:43;3.43;;;2.63;;
791;SDS011;379;49.022;12.148;2022-07-29T00:04:11;2.90;;;2.70;;
791;SDS011;379;49.022;12.148;2022-07-29T00:06:38;3.30;;;3.00;;
791;SDS011;379;49.022;12.148;2022-07-29T00:09:05;2.70;;;2.50;;
791;SDS011;379;49.022;12.148;2022-07-29T00:11:33;3.83;;;3.43;;
791;SDS011;379;49.022;12.148;2022-07-29T00:13:59;3.20;;;2.90;;
791;SDS011;379;49.022;12.148;2022-07-29T00:16:26;3.00;;;2.80;;
791;SDS011;379;49.022;12.148;2022-07-29T00:18:53;4.40;;;3.07;;
791;SDS011;379;49.022;12.148;2022-07-29T00:21:21;4.17;;;2.87;;
791;SDS011;379;49.022;12.148;2022-07-29T00:23:48;3.10;;;2.90;;
791;SDS011;379;49.022;12.148;2022-07-29T00:26:14;3.20;;;2.90;;
791;SDS011;379;49.022;12.148;2022-07-29T00:28:41;2.87;;;2.67;;
791;SDS011;379;49.022;12.148;2022-07-29T00:31:08;2.83;;;2.63;;
791;SDS011;379;49.022;12.148;2022-07-29T00:33:35;4.63;;;2.50;;
791;SDS011;379;49.022;12.148;2022-07-29T00:36:02;2.83;;;2.53;;
791;SDS011;379;49.022;12.148;2022-07-29T00:38:30;3.27;;;2.80;;
791;SDS011;379;49.022;12.148;2022-07-29T00:40:56;3.20;;;2.87;;
791;SDS011;379;49.022;12.148;2022-07-29T00:43:23;4.23;;;3.07;;
791;SDS011;379;49.022;12.148;2022-07-29T00:45:50;3.10;;;2.50;;
791;SDS011;379;49.022;12.148;2022-07-29T00:48:17;3.13;;;2.70;;
791;SDS011;379;49.022;12.148;2022-07-29T00:50:44;3.33;;;2.90;;
791;SDS011;379;49.022;12.148;2022-07-29T00:53:11;2.73;;;2.53;;
791;SDS011;379;49.022;12.148;2022-07-29T00:55:39;2.67;;;2.47;;
791;SDS011;379;49.022;12.148;2022-07-29T00:58:06;3.50;;;3.20;;
791;SDS011;379;49.022;12.148;2022-07-29T01:00:33;3.87;;;3.00;;
791;SDS011;379;49.022;12.148;2022-07-29T01:03:01;2.47;;;2.30;;
791;SDS011;379;49.022;12.148;2022-07-29T01:05:28;3.70;;;2.63;;
791;SDS011;379;49.022;12.148;2022-07-29T01:07:56;5.00;;;3.13;;
791;SDS011;379;49.022;12.148;2022-07-29T01:10:24;3.90;;;2.87;;
791;SDS011;379;49.022;12.148;2022-07-29T01:12:53;3.60;;;2.90;;
791;SDS011;379;49.022;12.148;2022-07-29T01:15:23;5.77;;;3.60;;
791;SDS011;379;49.022;12.148;2022-07-29T01:17:52;3.00;;;2.80;;
791;SDS011;379;49.022;12.148;2022-07-29T01:20:26;3.00;;;2.60;;
791;SDS011;379;49.022;12.148;2022-07-29T01:23:08;3.00;;;2.80;;
791;SDS011;379;49.022;12.148;2022-07-29T01:25:54;3.10;;;2.63;;
791;SDS011;379;49.022;12.148;2022-07-29T01:31:28;2.60;;;2.40;;
791;SDS011;379;49.022;12.148;2022-07-29T01:34:01;3.37;;;3.07;;
791;SDS011;379;49.022;12.148;2022-07-29T01:36:32;3.03;;;2.83;;
791;SDS011;379;49.022;12.148;2022-07-29T01:39:04;3.30;;;2.47;;
791;SDS011;379;49.022;12.148;2022-07-29T01:41:36;3.23;;;2.93;;
791;SDS011;379;49.022;12.148;2022-07-29T01:44:15;2.73;;;2.53;;
791;SDS011;379;49.022;12.148;2022-07-29T01:46:48;3.60;;;2.53;;
791;SDS011;379;49.022;12.148;2022-07-29T01:49:24;3.60;;;3.30;;
791;SDS011;379;49.022;12.148;2022-07-29T01:51:54;4.97;;;2.77;;
791;SDS011;379;49.022;12.148;2022-07-29T01:54:29;4.13;;;3.07;;
791;SDS011;379;49.022;12.148;2022-07-29T01:57:00;4.00;;;3.03;;
791;SDS011;379;49.022;12.148;2022-07-29T01:59:30;3.37;;;3.13;;
791;SDS011;379;49.022;12.148;2022-07-29T02:02:00;3.10;;;2.90;;
791;SDS011;379;49.022;12.148;2022-07-29T02:04:28;3.93;;;3.63;;
791;SDS011;379;49.022;12.148;2022-07-29T02:06:57;3.30;;;3.10;;
791;SDS011;379;49.022;12.148;2022-07-29T02:09:27;3.47;;;3.10;;
791;SDS011;379;49.022;12.148;2022-07-29T02:11:56;3.43;;;3.20;;
791;SDS011;379;49.022;12.148;2022-07-29T02:14:26;3.40;;;3.10;;
791;SDS011;379;49.022;12.148;2022-07-29T02:16:57;2.87;;;2.67;;
791;SDS011;379;49.022;12.148;2022-07-29T02:19:26;3.20;;;3.00;;
791;SDS011;379;49.022;12.148;2022-07-29T02:21:54;3.20;;;2.90;;
791;SDS011;379;49.022;12.148;2022-07-29T02:24:24;8.40;;;3.40;;
791;SDS011;379;49.022;12.148;2022-07-29T02:26:52;3.90;;;3.00;;
791;SDS011;379;49.022;12.148;2022-07-29T02:29:22;3.50;;;3.20;;
791;SDS011;379;49.022;12.148;2022-07-29T02:31:53;3.20;;;3.00;;
791;SDS011;379;49.022;12.148;2022-07-29T02:34:22;2.93;;;2.73;;
791;SDS011;379;49.022;12.148;2022-07-29T02:36:50;3.83;;;3.53;;
791;SDS011;379;49.022;12.148;2022-07-29T02:39:18;3.23;;;3.03;;
791;SDS011;379;49.022;12.148;2022-07-29T02:41:46;4.07;;;3.23;;
791;SDS011;379;49.022;12.148;2022-07-29T02:44:15;2.80;;;2.57;;
791;SDS011;379;49.022;12.148;2022-07-29T02:46:45;6.40;;;3.10;;
791;SDS011;379;49.022;12.148;2022-07-29T02:49:17;6.80;;;3.73;;
791;SDS011;379;49.022;12.148;2022-07-29T02:52:00;3.07;;;2.70;;
791;SDS011;379;49.022;12.148;2022-07-29T02:54:31;3.63;;;3.33;;
791;SDS011;379;49.022;12.148;2022-07-29T02:57:04;3.47;;;3.17;;
791;SDS011;379;49.022;12.148;2022-07-29T02:59:36;3.37;;;2.63;;
791;SDS011;379;49.022;12.148;2022-07-29T03:02:05;3.67;;;3.37;;
791;SDS011;379;49.022;12.148;2022-07-29T03:04:34;3.30;;;2.97;;
791;SDS011;379;49.022;12.148;2022-07-29T03:07:04;5.57;;;3.50;;
791;SDS011;379;49.022;12.148;2022-07-29T03:09:31;3.30;;;3.00;;
791;SDS011;379;49.022;12.148;2022-07-29T03:11:59;3.10;;;2.80;;
791;SDS011;379;49.022;12.148;2022-07-29T03:14:27;3.77;;;3.47;;
791;SDS011;379;49.022;12.148;2022-07-29T03:16:54;3.10;;;2.90;;
791;SDS011;379;49.022;12.148;2022-07-29T03:19:21;2.60;;;2.40;;
791;SDS011;379;49.022;12.148;2022-07-29T03:21:48;3.03;;;2.57;;
791;SDS011;379;49.022;12.148;2022-07-29T03:24:26;3.30;;;2.50;;
791;SDS011;379;49.022;12.148;2022-07-29T03:26:55;4.57;;;2.97;;
791;SDS011;379;49.022;12.148;2022-07-29T03:29:22;3.50;;;3.20;;
791;SDS011;379;49.022;12.148;2022-07-29T03:31:49;3.87;;;3.07;;
791;SDS011;379;49.022;12.148;2022-07-29T03:34:16;3.83;;;3.43;;
791;SDS011;379;49.022;12.148;2022-07-29T03:36:42;4.00;;;3.70;;
791;SDS011;379;49.022;12.148;2022-07-29T03:39:09;3.73;;;3.40;;
791;SDS011;379;49.022;12.148;2022-07-29T03:41:39;4.00;;;3.70;;
791;SDS011;379;49.022;12.148;2022-07-29T03:44:09;3.93;;;3.53;;
791;SDS011;379;49.022;12.148;2022-07-29T03:46:38;4.00;;;3.53;;
791;SDS011;379;49.022;12.148;2022-07-29T03:49:07;5.63;;;3.50;;
791;SDS011;379;49.022;12.148;2022-07-29T03:51:35;3.57;;;3.27;;
791;SDS011;379;49.022;12.148;2022-07-29T03:54:02;4.30;;;3.90;;
791;SDS011;379;49.022;12.148;2022-07-29T03:56:30;3.90;;;3.60;;
791;SDS011;379;49.022;12.148;2022-07-29T03:59:02;4.10;;;3.60;;
791;SDS011;379;49.022;12.148;2022-07-29T04:01:29;3.43;;;3.00;;
791;SDS011;379;49.022;12.148;2022-07-29T04:03:56;3.50;;;3.30;;
791;SDS011;379;49.022;12.148;2022-07-29T04:06:23;3.50;;;3.20;;
791;SDS011;379;49.022;12.148;2022-07-29T04:08:50;3.33;;;2.73;;
791;SDS011;379;49.022;12.148;2022-07-29T04:11:17;4.17;;;3.83;;
791;SDS011;379;49.022;12.148;2022-07-29T04:13:44;4.03;;;3.27;;
791;SDS011;379;49.022;12.148;2022-07-29T04:16:12;4.83;;;3.90;;
791;SDS011;379;49.022;12.148;2022-07-29T04:18:39;4.13;;;3.60;;
791;SDS011;379;49.022;12.148;2022-07-29T04:21:06;5.33;;;3.83;;
791;SDS011;379;49.022;12.148;2022-07-29T04:23:32;6.20;;;3.53;;
791;SDS011;379;49.022;12.148;2022-07-29T04:25:59;4.50;;;3.80;;
791;SDS011;379;49.022;12.148;2022-07-29T04:28:29;5.57;;;3.90;;
791;SDS011;379;49.022;12.148;2022-07-29T04:30:56;6.00;;;4.70;;
791;SDS011;379;49.022;12.148;2022-07-29T04:33:24;4.33;;;3.67;;
791;SDS011;379;49.022;12.148;2022-07-29T04:35:51;3.67;;;3.37;;
791;SDS011;379;49.022;12.148;2022-07-29T04:38:17;3.80;;;3.27;;
791;SDS011;379;49.022;12.148;2022-07-29T04:40:44;4.20;;;3.40;;
791;SDS011;379;49.022;12.148;2022-07-29T04:43:11;4.40;;;3.40;;
791;SDS011;379;49.022;12.148;2022-07-29T04:45:38;3.40;;;3.10;;
791;SDS011;379;49.022;12.148;2022-07-29T04:48:05;3.43;;;2.90;;
791;SDS011;379;49.022;12.148;2022-07-29T04:50:33;4.13;;;3.40;;
791;SDS011;379;49.022;12.148;2022-07-29T04:53:00;6.03;;;3.33;;
791;SDS011;379;49.022;12.148;2022-07-29T04:55:26;3.43;;;3.13;;
791;SDS011;379;49.022;12.148;2022-07-29T04:57:53;3.47;;;3.17;;
791;SDS011;379;49.022;12.148;2022-07-29T05:00:20;5.73;;;3.47;;
791;SDS011;379;49.022;12.148;2022-07-29T05:02:48;6.03;;;3.40;;
791;SDS011;379;49.022;12.148;2022-07-29T05:05:14;6.33;;;3.77;;
791;SDS011;379;49.022;12.148;2022-07-29T05:07:43;4.30;;;3.70;;
791;SDS011;379;49.022;12.148;2022-07-29T05:10:09;3.93;;;3.27;;
791;SDS011;379;49.022;12.148;2022-07-29T05:12:36;6.40;;;3.43;;
791;SDS011;379;49.022;12.148;2022-07-29T05:15:03;6.30;;;4.37;;
791;SDS011;379;49.022;12.148;2022-07-29T05:17:31;6.47;;;4.43;;
791;SDS011;379;49.022;12.148;2022-07-29T05:19:58;6.37;;;4.17;;
791;SDS011;379;49.022;12.148;2022-07-29T05:22:25;8.77;;;4.80;;
791;SDS011;379;49.022;12.148;2022-07-29T05:24:53;8.67;;;4.80;;
791;SDS011;379;49.022;12.148;2022-07-29T05:27:20;12.43;;;4.83;;
791;SDS011;379;49.022;12.148;2022-07-29T05:29:47;5.47;;;4.20;;
791;SDS011;379;49.022;12.148;2022-07-29T05:32:13;15.20;;;6.20;;
791;SDS011;379;49.022;12.148;2022-07-29T05:34:40;5.07;;;4.43;;
791;SDS011;379;49.022;12.148;2022-07-29T05:37:07;6.07;;;4.20;;
791;SDS011;379;49.022;12.148;2022-07-29T05:39:34;4.63;;;4.07;;
791;SDS011;379;49.022;12.148;2022-07-29T05:42:02;4.90;;;3.53;;
791;SDS011;379;49.022;12.148;2022-07-29T05:44:29;5.00;;;4.23;;
791;SDS011;379;49.022;12.148;2022-07-29T05:46:56;6.40;;;3.70;;
791;SDS011;379;49.022;12.148;2022-07-29T05:49:22;14.67;;;4.37;;
791;SDS011;379;49.022;12.148;2022-07-29T05:51:49;5.97;;;4.10;;
791;SDS011;379;49.022;12.148;2022-07-29T05:54:16;4.10;;;3.70;;
791;SDS011;379;49.022;12.148;2022-07-29T05:56:43;8.60;;;3.90;;
791;SDS011;379;49.022;12.148;2022-07-29T05:59:11;6.57;;;4.07;;
791;SDS011;379;49.022;12.148;2022-07-29T06:01:37;6.60;;;4.47;;
791;SDS011;379;49.022;12.148;2022-07-29T06:04:05;5.00;;;4.23;;
791;SDS011;379;49.022;12.148;2022-07-29T06:06:31;4.80;;;4.20;;
791;SDS011;379;49.022;12.148;2022-07-29T06:08:59;6.43;;;4.40;;
791;SDS011;379;49.022;12.148;2022-07-29T06:11:25;6.47;;;3.93;;
791;SDS011;379;49.022;12.148;2022-07-29T06:13:52;5.50;;;3.80;;
791;SDS011;379;49.022;12.148;2022-07-29T06:16:20;4.10;;;3.80;;
791;SDS011;379;49.022;12.148;2022-07-29T06:18:47;5.40;;;2.80;;
791;SDS011;379;49.022;12.148;2022-07-29T06:21:14;3.20;;;2.90;;
791;SDS011;379;49.022;12.148;2022-07-29T06:23:41;4.00;;;3.07;;
791;SDS011;379;49.022;12.148;2022-07-29T06:26:07;3.37;;;3.07;;
791;SDS011;379;49.022;12.148;2022-07-29T06:28:34;3.20;;;2.90;;
791;SDS011;379;49.022;12.148;2022-07-29T06:31:01;4.63;;;3.07;;
791;SDS011;379;49.022;12.148;2022-07-29T06:33:29;6.03;;;3.30;;
791;SDS011;379;49.022;12.148;2022-07-29T06:35:56;5.67;;;3.30;;
791;SDS011;379;49.022;12.148;2022-07-29T06:38:23;3.33;;;3.03;;
791;SDS011;379;49.022;12.148;2022-07-29T06:40:49;5.73;;;3.50;;
791;SDS011;379;49.022;12.148;2022-07-29T06:43:30;4.23;;;3.40;;
791;SDS011;379;49.022;12.148;2022-07-29T06:46:02;3.60;;;3.30;;
791;SDS011;379;49.022;12.148;2022-07-29T06:48:31;4.13;;;3.00;;
791;SDS011;379;49.022;12.148;2022-07-29T06:50:59;5.93;;;3.70;;
791;SDS011;379;49.022;12.148;2022-07-29T06:53:26;6.43;;;3.37;;
791;SDS011;379;49.022;12.148;2022-07-29T06:55:53;4.73;;;3.80;;
791;SDS011;379;49.022;12.148;2022-07-29T06:58:20;6.80;;;4.00;;
791;SDS011;379;49.022;12.148;2022-07-29T07:00:47;9.83;;;4.10;;
791;SDS011;379;49.022;12.148;2022-07-29T07:03:14;6.10;;;3.73;;
791;SDS011;379;49.022;12.148;2022-07-29T07:05:43;11.23;;;5.40;;
791;SDS011;379;49.022;12.148;2022-07-29T07:08:10;8.07;;;4.97;;
791;SDS011;379;49.022;12.148;2022-07-29T07:10:38;4.53;;;4.10;;
791;SDS011;379;49.022;12.148;2022-07-29T07:13:05;8.93;;;4.07;;
791;SDS011;379;49.022;12.148;2022-07-29T07:15:33;5.47;;;3.90;;
791;SDS011;379;49.022;12.148;2022-07-29T07:17:59;7.13;;;4.40;;
791;SDS011;379;49.022;12.148;2022-07-29T07:20:26;3.93;;;3.67;;
791;SDS011;379;49.022;12.148;2022-07-29T07:22:54;4.10;;;3.73;;
791;SDS011;379;49.022;12.148;2022-07-29T07:25:21;5.17;;;3.40;;
791;SDS011;379;49.022;12.148;2022-07-29T07:27:48;8.57;;;3.90;;
791;SDS011;379;49.022;12.148;2022-07-29T07:30:14;4.20;;;3.63;;
791;SDS011;379;49.022;12.148;2022-07-29T07:32:41;4.10;;;3.80;;
791;SDS011;379;49.022;12.148;2022-07-29T07:35:08;6.77;;;4.07;;
791;SDS011;379;49.022;12.148;2022-07-29T07:37:36;6.53;;;3.97;;
791;SDS011;379;49.022;12.148;2022-07-29T07:40:07;7.38;;;3.50;;
791;SDS011;379;49.022;12.148;2022-07-29T07:42:36;3.28;;;3.08;;
791;SDS011;379;49.022;12.148;2022-07-29T07:45:03;4.45;;;3.67;;
791;SDS011;379;49.022;12.148;2022-07-29T07:47:31;4.78;;;4.38;;
791;SDS011;379;49.022;12.148;2022-07-29T07:49:57;4.80;;;4.38;;
791;SDS011;379;49.022;12.148;2022-07-29T07:52:25;7.22;;;4.43;;
791;SDS011;379;49.022;12.148;2022-07-29T07:54:52;8.55;;;4.10;;
791;SDS011;379;49.022;12.148;2022-07-29T07:57:20;4.88;;;3.88;;
791;SDS011;379;49.022;12.148;2022-07-29T07:59:47;4.20;;;3.90;;
791;SDS011;379;49.022;12.148;2022-07-29T08:02:13;4.38;;;3.97;;
791;SDS011;379;49.022;12.148;2022-07-29T08:04:40;4.75;;;4.30;;
791;SDS011;379;49.022;12.148;2022-07-29T08:07:07;5.28;;;4.88;;
791;SDS011;379;49.022;12.148;2022-07-29T08:09:34;4.47;;;3.97;;
791;SDS011;379;49.022;12.148;2022-07-29T08:12:02;7.47;;;4.70;;
791;SDS011;379;49.022;12.148;2022-07-29T08:14:32;4.47;;;4.07;;
791;SDS011;379;49.022;12.148;2022-07-29T08:16:59;4.80;;;4.40;;
791;SDS011;379;49.022;12.148;2022-07-29T08:19:26;4.43;;;3.40;;
791;SDS011;379;49.022;12.148;2022-07-29T08:21:53;5.73;;;4.80;;
791;SDS011;379;49.022;12.148;2022-07-29T08:24:20;5.47;;;4.97;;
791;SDS011;379;49.022;12.148;2022-07-29T08:27:04;6.83;;;3.80;;
791;SDS011;379;49.022;12.148;2022-07-29T08:29:32;4.83;;;4.47;;
791;SDS011;379;49.022;12.148;2022-07-29T08:31:59;5.33;;;4.87;;
791;SDS011;379;49.022;12.148;2022-07-29T08:34:26;5.73;;;5.23;;
791;SDS011;379;49.022;12.148;2022-07-29T08:36:53;4.73;;;4.37;;
791;SDS011;379;49.022;12.148;2022-07-29T08:39:20;9.27;;;5.80;;
791;SDS011;379;49.022;12.148;2022-07-29T08:41:47;6.00;;;5.60;;
791;SDS011;379;49.022;12.148;2022-07-29T08:44:15;5.20;;;4.80;;
791;SDS011;379;49.022;12.148;2022-07-29T08:46:44;5.10;;;4.80;;
791;SDS011;379;49.022;12.148;2022-07-29T08:49:11;5.63;;;5.23;;
791;SDS011;379;49.022;12.148;2022-07-29T08:51:39;4.87;;;4.50;;
791;SDS011;379;49.022;12.148;2022-07-29T08:54:07;5.00;;;4.57;;
791;SDS011;379;49.022;12.148;2022-07-29T08:56:35;4.53;;;4.20;;
791;SDS011;379;49.022;12.148;2022-07-29T08:59:02;5.37;;;4.87;;
791;SDS011;379;49.022;12.148;2022-07-29T09:01:31;5.27;;;4.87;;
791;SDS011;379;49.022;12.148;2022-07-29T09:04:01;8.63;;;5.20;;
791;SDS011;379;49.022;12.148;2022-07-29T09:06:30;5.17;;;4.70;;
791;SDS011;379;49.022;12.148;2022-07-29T09:09:00;7.17;;;5.90;;
791;SDS011;379;49.022;12.148;2022-07-29T09:11:27;5.80;;;4.30;;
791;SDS011;379;49.022;12.148;2022-07-29T09:13:54;4.63;;;3.60;;
791;SDS011;379;49.022;12.148;2022-07-29T09:16:21;4.27;;;3.87;;
791;SDS011;379;49.022;12.148;2022-07-29T09:18:48;5.10;;;4.53;;
791;SDS011;379;49.022;12.148;2022-07-29T09:21:16;4.23;;;3.83;;
791;SDS011;379;49.022;12.148;2022-07-29T09:24:02;4.80;;;4.40;;
791;SDS011;379;49.022;12.148;2022-07-29T09:26:32;3.47;;;3.17;;
791;SDS011;379;49.022;12.148;2022-07-29T09:29:01;4.73;;;3.60;;
791;SDS011;379;49.022;12.148;2022-07-29T09:31:35;4.53;;;4.13;;
791;SDS011;379;49.022;12.148;2022-07-29T09:34:04;4.67;;;4.27;;
791;SDS011;379;49.022;12.148;2022-07-29T09:36:36;4.77;;;4.30;;
791;SDS011;379;49.022;12.148;2022-07-29T09:39:05;4.40;;;4.00;;
791;SDS011;379;49.022;12.148;2022-07-29T09:41:43;5.00;;;4.60;;
791;SDS011;379;49.022;12.148;2022-07-29T09:44:14;4.80;;;4.10;;
791;SDS011;379;49.022;12.148;2022-07-29T09:46:52;5.10;;;4.60;;
791;SDS011;379;49.022;12.148;2022-07-29T09:49:22;6.20;;;4.00;;
791;SDS011;379;49.022;12.148;2022-07-29T09:52:00;5.00;;;3.93;;
791;SDS011;379;49.022;12.148;2022-07-29T09:54:30;4.10;;;3.70;;
791;SDS011;379;49.022;12.148;2022-07-29T09:57:02;3.60;;;3.40;;
791;SDS011;379;49.022;12.148;2022-07-29T09:59:31;4.93;;;4.57;;
791;SDS011;379;49.022;12.148;2022-07-29T10:01:58;5.07;;;4.63;;
791;SDS011;379;49.022;12.148;2022-07-29T10:04:36;4.67;;;4.27;;
791;SDS011;379;49.022;12.148;2022-07-29T10:07:06;5.00;;;4.27;;
791;SDS011;379;49.022;12.148;2022-07-29T10:09:33;4.83;;;3.90;;
791;SDS011;379;49.022;12.148;2022-07-29T10:12:07;3.90;;;3.60;;
791;SDS011;379;49.022;12.148;2022-07-29T10:14:36;5.80;;;3.53;;
791;SDS011;379;49.022;12.148;2022-07-29T10:17:04;4.30;;;3.37;;
791;SDS011;379;49.022;12.148;2022-07-29T10:19:32;3.27;;;3.07;;
791;SDS011;379;49.022;12.148;2022-07-29T10:22:01;4.63;;;3.90;;
791;SDS011;379;49.022;12.148;2022-07-29T10:24:31;3.27;;;2.97;;
791;SDS011;379;49.022;12.148;2022-07-29T10:26:59;3.93;;;3.63;;
791;SDS011;379;49.022;12.148;2022-07-29T10:29:27;3.60;;;3.30;;
791;SDS011;379;49.022;12.148;2022-07-29T10:32:06;3.67;;;3.40;;
791;SDS011;379;49.022;12.148;2022-07-29T10:34:57;3.40;;;3.10;;
791;SDS011;379;49.022;12.148;2022-07-29T10:37:39;3.20;;;3.00;;
791;SDS011;379;49.022;12.148;2022-07-29T10:40:28;3.30;;;3.00;;
791;SDS011;379;49.022;12.148;2022-07-29T10:43:24;3.00;;;2.80;;
791;SDS011;379;49.022;12.148;2022-07-29T10:45:55;3.10;;;2.80;;
791;SDS011;379;49.022;12.148;2022-07-29T10:48:23;3.00;;;2.80;;
791;SDS011;379;49.022;12.148;2022-07-29T10:50:56;2.73;;;2.53;;
791;SDS011;379;49.022;12.148;2022-07-29T10:53:25;3.20;;;3.00;;
791;SDS011;379;49.022;12.148;2022-07-29T10:56:24;3.90;;;3.17;;
791;SDS011;379;49.022;12.148;2022-07-29T11:01:52;3.00;;;2.73;;
791;SDS011;379;49.022;12.148;2022-07-29T11:07:22;3.73;;;3.33;;
791;SDS011;379;49.022;12.148;2022-07-29T11:12:47;2.63;;;2.43;;
791;SDS011;379;49.022;12.148;2022-07-29T11:15:15;3.87;;;2.73;;
791;SDS011;379;49.022;12.148;2022-07-29T11:20:33;5.50;;;4.33;;
791;SDS011;379;49.022;12.148;2022-07-29T11:23:03;2.93;;;2.43;;
791;SDS011;379;49.022;12.148;2022-07-29T11:25:44;2.40;;;2.27;;
791;SDS011;379;49.022;12.148;2022-07-29T11:28:15;3.07;;;2.77;;
791;SDS011;379;49.022;12.148;2022-07-29T11:30:48;4.13;;;2.80;;
791;SDS011;379;49.022;12.148;2022-07-29T11:33:29;2.70;;;2.50;;
791;SDS011;379;49.022;12.148;2022-07-29T11:36:09;2.23;;;2.03;;
791;SDS011;379;49.022;12.148;2022-07-29T11:38:36;2.70;;;2.50;;
791;SDS011;379;49.022;12.148;2022-07-29T11:41:19;3.37;;;2.40;;
791;SDS011;379;49.022;12.148;2022-07-29T11:43:49;4.13;;;2.37;;
791;SDS011;379;49.022;12.148;2022-07-29T11:46:18;2.73;;;2.53;;
791;SDS011;379;49.022;12.148;2022-07-29T11:48:59;2.37;;;2.17;;
791;SDS011;379;49.022;12.148;2022-07-29T11:51:28;2.53;;;2.33;;
791;SDS011;379;49.022;12.148;2022-07-29T11:53:55;2.03;;;1.90;;
791;SDS011;379;49.022;12.148;2022-07-29T11:56:23;3.70;;;2.47;;
791;SDS011;379;49.022;12.148;2022-07-29T11:59:02;2.60;;;2.40;;
791;SDS011;379;49.022;12.148;2022-07-29T12:01:30;3.90;;;2.77;;
791;SDS011;379;49.022;12.148;2022-07-29T12:04:01;2.60;;;2.33;;
791;SDS011;379;49.022;12.148;2022-07-29T12:06:29;2.20;;;2.03;;
791;SDS011;379;49.022;12.148;2022-07-29T12:08:56;2.63;;;2.43;;
791;SDS011;379;49.022;12.148;2022-07-29T12:11:23;4.63;;;3.33;;
791;SDS011;379;49.022;12.148;2022-07-29T12:13:50;3.30;;;2.30;;
791;SDS011;379;49.022;12.148;2022-07-29T12:16:19;2.40;;;2.20;;
791;SDS011;379;49.022;12.148;2022-07-29T12:18:54;2.00;;;1.83;;
791;SDS011;379;49.022;12.148;2022-07-29T12:21:22;2.33;;;2.13;;
791;SDS011;379;49.022;12.148;2022-07-29T12:23:52;2.47;;;2.37;;
791;SDS011;379;49.022;12.148;2022-07-29T12:26:19;3.50;;;2.00;;
791;SDS011;379;49.022;12.148;2022-07-29T12:28:46;2.70;;;2.50;;
791;SDS011;379;49.022;12.148;2022-07-29T12:31:14;2.93;;;2.30;;
791;SDS011;379;49.022;12.148;2022-07-29T12:33:42;1.90;;;1.80;;
791;SDS011;379;49.022;12.148;2022-07-29T12:36:18;2.20;;;2.10;;
791;SDS011;379;49.022;12.148;2022-07-29T12:38:45;2.07;;;1.97;;
791;SDS011;379;49.022;12.148;2022-07-29T12:41:12;2.07;;;1.87;;
791;SDS011;379;49.022;12.148;2022-07-29T12:43:47;2.03;;;1.83;;
791;SDS011;379;49.022;12.148;2022-07-29T12:46:18;2.00;;;1.90;;
791;SDS011;379;49.022;12.148;2022-07-29T12:48:50;2.27;;;1.90;;
791;SDS011;379;49.022;12.148;2022-07-29T12:51:25;2.43;;;2.23;;
791;SDS011;379;49.022;12.148;2022-07-29T12:54:02;3.10;;;2.80;;
791;SDS011;379;49.022;12.148;2022-07-29T12:56:31;3.13;;;2.30;;
791;SDS011;379;49.022;12.148;2022-07-29T12:58:58;3.73;;;2.33;;
791;SDS011;379;49.022;12.148;2022-07-29T13:01:25;2.10;;;2.00;;
791;SDS011;379;49.022;12.148;2022-07-29T13:03:54;2.97;;;2.10;;
791;SDS011;379;49.022;12.148;2022-07-29T13:06:29;2.97;;;2.10;;
791;SDS011;379;49.022;12.148;2022-07-29T13:08:58;2.63;;;2.43;;
791;SDS011;379;49.022;12.148;2022-07-29T13:11:29;2.63;;;2.43;;
791;SDS011;379;49.022;12.148;2022-07-29T13:13:57;3.03;;;2.40;;
791;SDS011;379;49.022;12.148;2022-07-29T13:16:24;2.23;;;2.13;;
791;SDS011;379;49.022;12.148;2022-07-29T13:19:03;2.43;;;2.23;;
791;SDS011;379;49.022;12.148;2022-07-29T13:21:32;2.10;;;2.00;;
791;SDS011;379;49.022;12.148;2022-07-29T13:23:58;2.80;;;2.60;;
791;SDS011;379;49.022;12.148;2022-07-29T13:26:25;2.87;;;2.40;;
791;SDS011;379;49.022;12.148;2022-07-29T13:28:52;2.37;;;2.17;;
791;SDS011;379;49.022;12.148;2022-07-29T13:31:20;3.53;;;2.30;;
791;SDS011;379;49.022;12.148;2022-07-29T13:33:47;3.63;;;3.00;;
791;SDS011;379;49.022;12.148;2022-07-29T13:36:15;2.40;;;2.30;;
791;SDS011;379;49.022;12.148;2022-07-29T13:38:42;2.73;;;2.50;;
791;SDS011;379;49.022;12.148;2022-07-29T13:41:09;2.20;;;2.10;;
791;SDS011;379;49.022;12.148;2022-07-29T13:43:36;2.17;;;2.07;;
791;SDS011;379;49.022;12.148;2022-07-29T13:46:03;2.10;;;2.00;;
791;SDS011;379;49.022;12.148;2022-07-29T13:48:29;2.53;;;2.33;;
791;SDS011;379;49.022;12.148;2022-07-29T13:50:56;2.20;;;2.00;;
791;SDS011;379;49.022;12.148;2022-07-29T13:53:24;3.00;;;1.80;;
791;SDS011;379;49.022;12.148;2022-07-29T13:55:52;6.90;;;6.40;;
791;SDS011;379;49.022;12.148;2022-07-29T13:58:19;2.60;;;2.40;;
791;SDS011;379;49.022;12.148;2022-07-29T14:00:46;2.13;;;1.93;;
791;SDS011;379;49.022;12.148;2022-07-29T14:03:13;1.60;;;1.50;;
791;SDS011;379;49.022;12.148;2022-07-29T14:05:40;2.03;;;1.93;;
791;SDS011;379;49.022;12.148;2022-07-29T14:08:07;3.20;;;2.30;;
791;SDS011;379;49.022;12.148;2022-07-29T14:10:35;2.07;;;1.90;;
791;SDS011;379;49.022;12.148;2022-07-29T14:13:01;1.70;;;1.60;;
791;SDS011;379;49.022;12.148;2022-07-29T14:15:28;1.80;;;1.70;;
791;SDS011;379;49.022;12.148;2022-07-29T14:17:55;2.90;;;1.87;;
791;SDS011;379;49.022;12.148;2022-07-29T14:20:22;2.00;;;1.80;;
791;SDS011;379;49.022;12.148;2022-07-29T14:22:48;3.33;;;1.90;;
791;SDS011;379;49.022;12.148;2022-07-29T14:25:15;1.50;;;1.40;;
791;SDS011;379;49.022;12.148;2022-07-29T14:27:43;1.87;;;1.77;;
791;SDS011;379;49.022;12.148;2022-07-29T14:30:10;2.13;;;2.03;;
791;SDS011;379;49.022;12.148;2022-07-29T14:32:38;2.33;;;1.80;;
791;SDS011;379;49.022;12.148;2022-07-29T14:35:05;2.00;;;1.83;;
791;SDS011;379;49.022;12.148;2022-07-29T14:37:33;4.43;;;1.80;;
791;SDS011;379;49.022;12.148;2022-07-29T14:40:00;1.73;;;1.60;;
791;SDS011;379;49.022;12.148;2022-07-29T14:42:28;2.80;;;1.70;;
791;SDS011;379;49.022;12.148;2022-07-29T14:44:57;2.00;;;1.90;;
791;SDS011;379;49.022;12.148;2022-07-29T14:47:24;2.00;;;1.90;;
791;SDS011;379;49.022;12.148;2022-07-29T14:49:51;1.40;;;1.30;;
791;SDS011;379;49.022;12.148;2022-07-29T14:52:17;2.13;;;1.70;;
791;SDS011;379;49.022;12.148;2022-07-29T14:54:44;2.20;;;2.00;;
791;SDS011;379;49.022;12.148;2022-07-29T14:57:11;1.53;;;1.40;;
791;SDS011;379;49.022;12.148;2022-07-29T14:59:38;1.63;;;1.53;;
791;SDS011;379;49.022;12.148;2022-07-29T15:02:06;1.93;;;1.80;;
791;SDS011;379;49.022;12.148;2022-07-29T15:04:32;2.40;;;1.47;;
791;SDS011;379;49.022;12.148;2022-07-29T15:06:59;1.60;;;1.50;;
791;SDS011;379;49.022;12.148;2022-07-29T15:09:26;1.67;;;1.57;;
791;SDS011;379;49.022;12.148;2022-07-29T15:11:53;2.00;;;1.77;;
791;SDS011;379;49.022;12.148;2022-07-29T15:14:20;1.60;;;1.50;;
791;SDS011;379;49.022;12.148;2022-07-29T15:16:46;1.70;;;1.57;;
791;SDS011;379;49.022;12.148;2022-07-29T15:19:15;1.70;;;1.60;;
791;SDS011;379;49.022;12.148;2022-07-29T15:21:41;2.17;;;1.80;;
791;SDS011;379;49.022;12.148;2022-07-29T15:24:08;2.17;;;1.70;;
791;SDS011;379;49.022;12.148;2022-07-29T15:26:35;1.90;;;1.80;;
791;SDS011;379;49.022;12.148;2022-07-29T15:29:02;2.70;;;1.90;;
791;SDS011;379;49.022;12.148;2022-07-29T15:31:28;1.63;;;1.53;;
791;SDS011;379;49.022;12.148;2022-07-29T15:33:55;3.07;;;1.73;;
791;SDS011;379;49.022;12.148;2022-07-29T15:36:23;1.97;;;1.77;;
791;SDS011;379;49.022;12.148;2022-07-29T15:38:51;2.80;;;2.00;;
791;SDS011;379;49.022;12.148;2022-07-29T15:41:19;1.80;;;1.70;;
791;SDS011;379;49.022;12.148;2022-07-29T15:43:46;1.73;;;1.63;;
791;SDS011;379;49.022;12.148;2022-07-29T15:46:14;1.70;;;1.60;;
791;SDS011;379;49.022;12.148;2022-07-29T15:49:00;3.13;;;1.60;;
791;SDS011;379;49.022;12.148;2022-07-29T15:51:29;1.30;;;1.20;;
791;SDS011;379;49.022;12.148;2022-07-29T15:53:55;1.63;;;1.53;;
791;SDS011;379;49.022;12.148;2022-07-29T15:56:22;1.70;;;1.53;;